createdAt,value
2023-02-05T00:03:20.134Z,8.47
2023-02-05T00:08:22.311Z,9.57
2023-02-05T00:13:27.646Z,9.50
2023-02-05T00:18:30.630Z,7.73
2023-02-05T00:23:33.200Z,6.13
2023-02-05T00:28:36.404Z,4.83
2023-02-05T00:33:39.131Z,7.90
2023-02-05T00:38:42.464Z,8.67
2023-02-05T00:43:44.846Z,5.17
2023-02-05T00:48:47.920Z,8.77
2023-02-05T00:53:50.149Z,7.73
2023-02-05T00:58:52.270Z,6.13
2023-02-05T01:03:54.431Z,7.00
2023-02-05T01:08:56.614Z,5.33
2023-02-05T01:13:58.831Z,7.53
2023-02-05T01:19:01.040Z,7.30
2023-02-05T01:24:04.207Z,6.20
2023-02-05T01:29:06.329Z,5.93
2023-02-05T01:34:08.703Z,5.47
2023-02-05T01:39:10.969Z,5.30
2023-02-05T01:44:18.752Z,6.10
2023-02-05T01:49:28.717Z,8.60
2023-02-05T01:54:32.165Z,8.20
2023-02-05T01:59:37.197Z,6.87
2023-02-05T02:04:53.751Z,8.00
2023-02-05T02:09:56.128Z,6.43
2023-02-05T02:15:04.283Z,6.70
2023-02-05T02:20:11.452Z,7.70
2023-02-05T02:25:19.627Z,6.00
2023-02-05T02:30:27.994Z,6.07
2023-02-05T02:35:33.883Z,7.97
2023-02-05T02:40:41.529Z,8.30
2023-02-05T02:45:53.581Z,6.00
2023-02-05T02:50:57.227Z,8.20
2023-02-05T02:56:01.248Z,7.57
2023-02-05T03:01:07.114Z,7.80
2023-02-05T03:06:10.771Z,5.70
2023-02-05T03:11:14.961Z,7.23
2023-02-05T03:16:19.259Z,6.73
2023-02-05T03:21:33.419Z,5.57
2023-02-05T03:26:36.436Z,4.63
2023-02-05T03:31:57.892Z,8.13
2023-02-05T03:37:10.186Z,6.37
2023-02-05T03:42:30.817Z,7.60
2023-02-05T03:47:49.654Z,7.43
2023-02-05T03:52:57.524Z,9.20
2023-02-05T03:58:04.446Z,7.13
2023-02-05T04:03:06.794Z,6.23
2023-02-05T04:08:09.947Z,5.93
2023-02-05T04:13:18.751Z,6.85
2023-02-05T04:18:21.082Z,5.07
2023-02-05T04:23:24.997Z,6.50
2023-02-05T04:28:28.190Z,8.27
2023-02-05T04:33:30.798Z,9.27
2023-02-05T04:38:33.268Z,7.63
2023-02-05T04:43:35.424Z,9.60
2023-02-05T04:48:38.715Z,9.20
2023-02-05T04:53:41.117Z,8.33
2023-02-05T04:58:44.093Z,10.20
2023-02-05T05:03:46.530Z,7.47
2023-02-05T05:08:48.806Z,8.30
2023-02-05T05:13:52.404Z,6.83
2023-02-05T05:18:54.547Z,9.10
2023-02-05T05:23:56.691Z,6.93
2023-02-05T05:28:59.143Z,10.10
2023-02-05T05:34:01.437Z,8.90
2023-02-05T05:39:22.006Z,6.73
2023-02-05T05:44:24.180Z,7.00
2023-02-05T05:49:26.388Z,9.77
2023-02-05T05:59:38.919Z,9.67
2023-02-05T06:04:41.051Z,10.57
2023-02-05T06:09:43.257Z,13.67
2023-02-05T06:14:45.401Z,10.37
2023-02-05T06:19:47.492Z,9.93
2023-02-05T06:24:49.616Z,7.47
2023-02-05T06:29:51.718Z,14.53
2023-02-05T06:34:53.951Z,14.40
2023-02-05T06:39:56.347Z,12.63
2023-02-05T06:44:58.520Z,11.63
2023-02-05T06:50:00.744Z,13.97
2023-02-05T06:55:27.617Z,12.80
2023-02-05T07:00:31.528Z,13.93
2023-02-05T07:05:35.246Z,11.97
2023-02-05T07:10:37.669Z,11.10
2023-02-05T07:15:39.827Z,11.83
2023-02-05T07:20:41.956Z,13.23
2023-02-05T07:25:44.044Z,10.90
2023-02-05T07:30:48.032Z,13.97
2023-02-05T07:35:50.144Z,10.30
2023-02-05T07:40:52.235Z,13.73
2023-02-05T07:45:58.348Z,16.20
2023-02-05T07:51:00.915Z,14.03
2023-02-05T07:56:06.287Z,13.30
2023-02-05T08:01:08.980Z,14.63
2023-02-05T08:06:14.765Z,10.37
2023-02-05T08:11:18.272Z,12.10
2023-02-05T08:16:20.565Z,12.93
2023-02-05T08:21:22.853Z,11.37
2023-02-05T08:26:25.051Z,10.57
2023-02-05T08:31:27.426Z,14.83
2023-02-05T08:36:29.776Z,13.57
2023-02-05T08:41:31.929Z,19.43
2023-02-05T08:46:48.920Z,13.93
2023-02-05T08:51:52.374Z,18.77
2023-02-05T08:56:54.522Z,14.73
2023-02-05T09:01:56.636Z,13.00
2023-02-05T09:06:58.770Z,14.63
2023-02-05T09:12:01.318Z,13.77
2023-02-05T09:17:05.758Z,11.00
2023-02-05T09:22:08.727Z,14.27
2023-02-05T09:27:14.461Z,13.73
2023-02-05T09:32:16.592Z,12.17
2023-02-05T09:37:18.858Z,10.90
2023-02-05T09:42:32.575Z,10.37
2023-02-05T09:47:39.451Z,11.27
2023-02-05T09:52:45.503Z,13.57
2023-02-05T09:57:47.694Z,10.20
2023-02-05T10:02:57.810Z,12.20
2023-02-05T10:08:16.473Z,11.63
2023-02-05T10:13:25.275Z,13.70
2023-02-05T10:18:39.493Z,13.82
2023-02-05T10:24:19.122Z,13.37
2023-02-05T10:29:30.914Z,10.47
2023-02-05T10:34:52.767Z,13.47
2023-02-05T10:39:56.902Z,13.00
2023-02-05T10:45:09.928Z,14.27
2023-02-05T10:50:35.643Z,15.77
2023-02-05T10:55:38.344Z,11.40
2023-02-05T11:00:40.647Z,15.63
2023-02-05T11:05:44.182Z,15.37
2023-02-05T11:10:53.211Z,18.40
2023-02-05T11:16:01.279Z,18.65
2023-02-05T11:21:06.307Z,17.53
2023-02-05T11:26:16.735Z,13.03
2023-02-05T11:31:32.549Z,14.80
2023-02-05T11:36:51.220Z,15.73
2023-02-05T11:41:56.820Z,14.90
2023-02-05T11:47:02.365Z,11.67
2023-02-05T11:52:15.527Z,22.43
2023-02-05T11:57:17.616Z,14.03
2023-02-05T12:02:28.951Z,15.03
2023-02-05T12:07:55.771Z,14.13
2023-02-05T12:13:08.129Z,22.73
2023-02-05T12:18:16.754Z,19.63
2023-02-05T12:23:32.374Z,18.80
2023-02-05T12:28:50.928Z,19.07
2023-02-05T12:34:16.326Z,24.13
2023-02-05T12:39:49.128Z,23.90
2023-02-05T12:44:54.761Z,19.93
2023-02-05T12:50:02.579Z,23.60
2023-02-05T12:55:25.713Z,21.27
2023-02-05T13:00:34.621Z,23.47
2023-02-05T13:06:02.548Z,22.42
2023-02-05T13:11:37.705Z,26.00
2023-02-05T13:16:47.577Z,22.07
2023-02-05T13:22:10.197Z,27.47
2023-02-05T13:27:47.526Z,31.83
2023-02-05T13:32:52.140Z,24.80
2023-02-05T13:38:17.601Z,25.53
2023-02-05T13:43:29.249Z,22.93
2023-02-05T13:48:57.569Z,19.47
2023-02-05T13:54:24.588Z,13.73
2023-02-05T13:59:36.378Z,12.07
2023-02-05T14:04:49.087Z,14.57
2023-02-05T14:09:57.306Z,11.40
2023-02-05T14:15:17.737Z,17.13
2023-02-05T14:20:26.561Z,14.33
2023-02-05T14:25:43.535Z,14.05
2023-02-05T14:30:52.858Z,14.13
2023-02-05T14:36:17.605Z,12.43
2023-02-05T14:41:50.877Z,12.37
2023-02-05T14:46:58.378Z,11.20
2023-02-05T14:52:21.803Z,13.10
2023-02-05T14:57:38.030Z,12.67
2023-02-05T15:03:02.331Z,8.97
2023-02-05T15:08:18.314Z,14.97
2023-02-05T15:13:21.493Z,11.17
2023-02-05T15:18:32.717Z,11.33
2023-02-05T15:23:39.490Z,13.43
2023-02-05T15:29:04.109Z,12.73
2023-02-05T15:34:43.303Z,12.17
2023-02-05T15:39:56.230Z,11.10
2023-02-05T15:44:58.587Z,11.17
2023-02-05T15:50:02.575Z,15.27
2023-02-05T15:55:12.339Z,10.40
2023-02-05T16:05:23.409Z,12.97
2023-02-05T16:10:31.044Z,11.70
2023-02-05T16:15:47.234Z,10.87
2023-02-05T16:20:56.066Z,12.80
2023-02-05T16:26:01.678Z,12.38
2023-02-05T16:31:08.224Z,14.07
2023-02-05T16:36:21.798Z,16.50
2023-02-05T16:41:27.971Z,9.30
2023-02-05T16:46:31.775Z,11.30
2023-02-05T16:51:46.202Z,16.87
2023-02-05T16:57:08.787Z,15.03
2023-02-05T17:02:39.869Z,14.53
2023-02-05T17:08:08.562Z,11.93
2023-02-05T17:13:41.880Z,18.10
2023-02-05T17:18:53.856Z,14.00
2023-02-05T17:23:58.139Z,15.30
2023-02-05T17:29:02.884Z,13.03
2023-02-05T17:34:05.417Z,13.37
2023-02-05T17:39:10.652Z,15.30
2023-02-05T17:44:15.817Z,18.87
2023-02-05T17:49:18.107Z,12.60
2023-02-05T17:54:25.748Z,11.53
2023-02-05T17:59:28.317Z,15.23
2023-02-05T18:04:30.433Z,12.90
2023-02-05T18:09:32.893Z,12.80
2023-02-05T18:14:35.073Z,11.87
2023-02-05T18:19:39.586Z,13.57
2023-02-05T18:24:41.845Z,11.67
2023-02-05T18:29:46.310Z,8.30
2023-02-05T18:34:48.637Z,8.03
2023-02-05T18:39:51.170Z,10.20
2023-02-05T18:44:56.662Z,9.43
2023-02-05T18:50:03.374Z,11.77
2023-02-05T18:55:09.412Z,13.17
2023-02-05T19:00:12.217Z,8.90
2023-02-05T19:05:14.401Z,8.77
2023-02-05T19:10:18.370Z,10.30
2023-02-05T19:15:20.705Z,11.77
2023-02-05T19:20:23.040Z,11.63
2023-02-05T19:25:25.324Z,11.67
2023-02-05T19:30:27.533Z,15.83
2023-02-05T19:35:29.785Z,11.50
2023-02-05T19:40:35.008Z,10.70
2023-02-05T19:45:37.950Z,11.83
2023-02-05T19:50:41.302Z,12.37
2023-02-05T19:55:43.418Z,11.33
2023-02-05T20:00:45.585Z,13.43
2023-02-05T20:05:47.712Z,11.63
2023-02-05T20:10:59.939Z,7.97
2023-02-05T20:16:13.560Z,10.60
2023-02-05T20:21:19.023Z,8.17
2023-02-05T20:26:26.700Z,8.77
2023-02-05T20:31:35.074Z,10.67
2023-02-05T20:36:37.975Z,7.47
2023-02-05T20:41:40.321Z,8.30
2023-02-05T20:46:42.830Z,7.03
2023-02-05T20:51:44.938Z,11.57
2023-02-05T20:56:47.149Z,11.40
2023-02-05T21:01:49.312Z,10.53
2023-02-05T21:06:53.781Z,8.50
2023-02-05T21:11:56.056Z,9.83
2023-02-05T21:16:58.265Z,8.83
2023-02-05T21:22:00.718Z,7.33
2023-02-05T21:27:02.860Z,5.27
2023-02-05T21:32:05.247Z,8.07
2023-02-05T21:37:07.456Z,10.20
2023-02-05T21:42:09.695Z,8.10
2023-02-05T21:47:11.831Z,7.93
2023-02-05T21:52:13.962Z,5.87
2023-02-05T21:57:16.835Z,10.53
2023-02-05T22:02:19.061Z,4.10
2023-02-05T22:07:21.323Z,7.43
2023-02-05T22:12:27.379Z,7.47
2023-02-05T22:17:32.511Z,6.10
2023-02-05T22:22:37.059Z,8.03
2023-02-05T22:27:39.173Z,7.17
2023-02-05T22:32:41.324Z,7.37
2023-02-05T22:37:43.474Z,7.17
2023-02-05T22:42:45.560Z,8.20
2023-02-05T22:47:47.708Z,5.57
2023-02-05T22:52:49.970Z,7.30
2023-02-05T22:57:53.047Z,7.90
2023-02-05T23:02:58.077Z,5.63
2023-02-05T23:08:00.811Z,3.97
2023-02-05T23:13:03.008Z,8.23
2023-02-05T23:18:05.120Z,7.57
2023-02-05T23:23:07.253Z,7.33
2023-02-05T23:28:09.410Z,8.27
2023-02-05T23:33:11.532Z,4.67
2023-02-05T23:38:13.572Z,5.10
2023-02-05T23:43:15.671Z,7.77
2023-02-05T23:48:18.071Z,6.90
2023-02-05T23:53:21.312Z,6.00
2023-02-05T23:58:26.153Z,5.90
